Saipan Mariana Islands, Northern Mariana Islands
Current Conditions -  °F | °C
As of 1:54 AM on Monday 22 Dec 2014 (Local Time) from PGSN Reporting Station
Overcast Overcast  
Wind Chill: 81°   Ceiling: 3600
Heat Index: 86°   Visibility: 10mi
Dew Point: 73°   Wind: 20mph
Humidity: 77%   Direction: 90°E
Pressure: 29.88"   Gusts: 28mph
Location:  15.182°N, 145.755°E
Report Text: PGSN 211554Z 09017G24KT 10SM FEW022 OVC036 27/23 A2988 RMK AO2 SLP140 T02720228 PNO $
Loading
Personal Weather Stations






























Interactive Weather Map New forecast layout! Learn more

10-Day Weather Forecast

Advertisements
Track Severe Weather on mobile